Terminal Aerodrome Forecast
Issued by NWS

Home | Current Version | Previous Version | Graphics & Text | Print | Product List | Glossary On
Versions: 1 2 3 4 5 6 7 8 9 10 11 12 13 14 15 16 17 18 19 20 21
000
FTUS43 KICT 271115 AAA
TAFCNU
TAF AMD
KCNU 271115Z 2711/2806 13005KT 2SM BR OVC002
      TEMPO 2711/2714 5SM BR SCT005 OVC100
     FM271400 15004KT P6SM BKN100=

USA.gov is the U.S. government's official web portal to all federal, state and local government web resources and services.